createdAt,value
2018-09-05T00:02:20.340Z,45.67
2018-09-05T00:04:48.556Z,47.50
2018-09-05T00:07:16.753Z,46.07
2018-09-05T00:09:44.947Z,47.57
2018-09-05T00:12:13.172Z,46.90
2018-09-05T00:14:41.356Z,44.83
2018-09-05T00:17:09.580Z,47.37
2018-09-05T00:19:37.821Z,47.47
2018-09-05T00:22:06.045Z,46.10
2018-09-05T00:24:34.269Z,45.00
2018-09-05T00:27:02.548Z,46.10
2018-09-05T00:29:30.749Z,45.80
2018-09-05T00:31:58.972Z,46.10
2018-09-05T00:34:27.153Z,44.70
2018-09-05T00:36:55.344Z,46.23
2018-09-05T00:39:23.607Z,45.60
2018-09-05T00:41:51.845Z,44.40
2018-09-05T00:44:20.043Z,45.63
2018-09-05T00:46:48.295Z,45.37
2018-09-05T00:49:16.549Z,43.77
2018-09-05T00:51:44.744Z,44.70
2018-09-05T00:54:12.964Z,45.83
2018-09-05T00:56:41.140Z,44.63
2018-09-05T00:59:09.361Z,46.57
2018-09-05T01:01:37.545Z,44.83
2018-09-05T01:04:05.777Z,45.23
2018-09-05T01:06:34.088Z,46.50
2018-09-05T01:09:02.293Z,44.53
2018-09-05T01:11:30.495Z,46.20
2018-09-05T01:13:58.686Z,49.10
2018-09-05T01:16:26.939Z,43.13
2018-09-05T01:18:55.116Z,45.20
2018-09-05T01:21:23.337Z,43.77
2018-09-05T01:23:51.584Z,47.50
2018-09-05T01:26:19.800Z,45.63
2018-09-05T01:28:48.019Z,46.37
2018-09-05T01:31:16.235Z,44.87
2018-09-05T01:33:44.427Z,46.43
2018-09-05T01:36:15.789Z,46.00
2018-09-05T01:38:44.350Z,46.53
2018-09-05T01:41:13.652Z,46.17
2018-09-05T01:43:42.338Z,47.50
2018-09-05T01:46:10.543Z,48.20
2018-09-05T01:48:39.307Z,46.97
2018-09-05T01:51:07.764Z,47.50
2018-09-05T01:53:36.082Z,46.27
2018-09-05T01:56:04.305Z,47.03
2018-09-05T01:58:32.543Z,46.07
2018-09-05T02:01:00.751Z,47.83
2018-09-05T02:03:28.938Z,46.33
2018-09-05T02:05:57.115Z,48.60
2018-09-05T02:08:25.334Z,46.97
2018-09-05T02:10:53.515Z,50.87
2018-09-05T02:13:21.770Z,49.33
2018-09-05T02:15:49.991Z,47.97
2018-09-05T02:18:18.200Z,49.07
2018-09-05T02:20:46.456Z,47.50
2018-09-05T02:23:14.654Z,50.90
2018-09-05T02:25:42.845Z,49.80
2018-09-05T02:28:11.027Z,49.77
2018-09-05T02:30:39.280Z,50.73
2018-09-05T02:33:07.458Z,49.17
2018-09-05T02:35:35.656Z,54.37
2018-09-05T02:38:03.880Z,51.70
2018-09-05T02:40:32.192Z,49.77
2018-09-05T02:43:00.307Z,51.10
2018-09-05T02:45:28.491Z,50.30
2018-09-05T02:47:56.747Z,51.20
2018-09-05T02:50:24.991Z,50.87
2018-09-05T02:52:53.219Z,52.30
2018-09-05T02:56:25.403Z,50.67
2018-09-05T02:58:53.607Z,52.60
2018-09-05T03:01:21.788Z,51.30
2018-09-05T03:03:50.032Z,54.43
2018-09-05T03:06:18.208Z,52.30
2018-09-05T03:08:46.410Z,54.77
2018-09-05T03:11:14.684Z,55.63
2018-09-05T03:13:42.938Z,53.20
2018-09-05T03:16:11.157Z,56.90
2018-09-05T03:18:39.454Z,56.10
2018-09-05T03:21:07.726Z,52.77
2018-09-05T03:23:36.058Z,56.33
2018-09-05T03:26:04.344Z,55.40
2018-09-05T03:28:32.611Z,55.73
2018-09-05T03:31:00.818Z,53.40
2018-09-05T03:33:29.069Z,56.40
2018-09-05T03:35:57.377Z,54.00
2018-09-05T03:38:25.908Z,59.57
2018-09-05T03:40:54.135Z,57.90
2018-09-05T03:43:22.466Z,59.87
2018-09-05T03:45:50.761Z,57.60
2018-09-05T03:48:19.046Z,61.70
2018-09-05T03:50:47.262Z,63.10
2018-09-05T03:53:15.787Z,61.10
2018-09-05T03:55:44.000Z,60.40
2018-09-05T03:58:12.426Z,61.10
2018-09-05T04:00:40.670Z,55.97
2018-09-05T04:03:08.933Z,58.80
2018-09-05T04:05:37.257Z,56.70
2018-09-05T04:08:05.557Z,55.93
2018-09-05T04:10:33.806Z,54.43
2018-09-05T04:13:02.061Z,50.30
2018-09-05T04:15:30.285Z,44.00
2018-09-05T04:17:58.487Z,36.67
2018-09-05T04:20:26.816Z,40.00
2018-09-05T04:22:55.061Z,38.30
2018-09-05T04:25:23.360Z,40.50
2018-09-05T04:27:58.349Z,39.13
2018-09-05T04:30:26.598Z,34.97
2018-09-05T04:32:54.825Z,29.90
2018-09-05T04:35:23.059Z,28.50
2018-09-05T04:37:51.375Z,26.00
2018-09-05T04:40:19.596Z,29.00
2018-09-05T04:42:47.865Z,32.00
2018-09-05T04:45:16.150Z,32.00
2018-09-05T04:47:44.319Z,32.33
2018-09-05T04:50:12.902Z,32.27
2018-09-05T04:52:41.227Z,35.00
2018-09-05T04:55:09.382Z,32.50
2018-09-05T04:57:37.609Z,30.53
2018-09-05T05:00:05.821Z,27.87
2018-09-05T05:02:34.052Z,23.57
2018-09-05T05:05:02.245Z,26.50
2018-09-05T05:07:30.522Z,22.87
2018-09-05T05:09:58.782Z,24.10
2018-09-05T05:12:27.178Z,25.37
2018-09-05T05:14:55.371Z,24.70
2018-09-05T05:17:23.713Z,26.13
2018-09-05T05:19:51.931Z,22.97
2018-09-05T05:22:20.160Z,24.53
2018-09-05T05:24:48.438Z,29.60
2018-09-05T05:27:16.674Z,32.80
2018-09-05T05:29:44.885Z,33.93
2018-09-05T05:32:13.101Z,33.77
2018-09-05T05:34:41.333Z,32.17
2018-09-05T05:37:09.615Z,32.87
2018-09-05T05:39:37.950Z,29.17
2018-09-05T05:42:06.214Z,25.73
2018-09-05T05:44:34.537Z,19.63
2018-09-05T05:47:02.789Z,18.23
2018-09-05T05:49:31.054Z,14.97
2018-09-05T05:51:59.337Z,12.93
2018-09-05T05:54:27.579Z,11.13
2018-09-05T05:56:55.841Z,13.27
2018-09-05T05:59:24.054Z,12.53
2018-09-05T06:01:52.479Z,12.80
2018-09-05T06:04:20.737Z,12.90
2018-09-05T06:06:48.937Z,12.13
2018-09-05T06:09:17.153Z,10.70
2018-09-05T06:11:45.461Z,12.07
2018-09-05T06:14:13.685Z,11.10
2018-09-05T06:16:41.882Z,9.60
2018-09-05T06:19:10.210Z,10.63
2018-09-05T06:21:38.445Z,11.00
2018-09-05T06:24:06.939Z,10.50
2018-09-05T06:26:35.096Z,11.00
2018-09-05T06:29:03.321Z,11.80
2018-09-05T06:31:31.641Z,11.07
2018-09-05T06:33:59.881Z,10.30
2018-09-05T06:36:28.106Z,10.80
2018-09-05T06:38:56.378Z,11.13
2018-09-05T06:41:25.606Z,11.03
2018-09-05T06:43:53.829Z,11.03
2018-09-05T06:46:22.099Z,9.80
2018-09-05T06:48:50.320Z,9.77
2018-09-05T06:51:18.542Z,10.73
2018-09-05T06:53:46.819Z,9.30
2018-09-05T06:56:15.022Z,7.97
2018-09-05T06:58:43.575Z,8.70
2018-09-05T07:01:11.804Z,7.80
2018-09-05T07:03:40.193Z,7.83
2018-09-05T07:06:08.306Z,7.80
2018-09-05T07:08:36.589Z,9.93
2018-09-05T07:11:04.865Z,10.57
2018-09-05T07:13:33.074Z,10.60
2018-09-05T07:16:01.330Z,8.40
2018-09-05T07:18:29.579Z,8.93
2018-09-05T07:21:05.680Z,8.97
2018-09-05T07:23:26.182Z,8.73
2018-09-05T07:25:54.466Z,9.10
2018-09-05T07:28:59.627Z,7.83
2018-09-05T07:31:27.830Z,8.00
2018-09-05T07:33:56.057Z,6.63
2018-09-05T07:36:24.256Z,8.23
2018-09-05T07:38:52.469Z,8.60
2018-09-05T07:41:20.729Z,10.40
2018-09-05T07:43:49.009Z,9.73
2018-09-05T07:46:17.210Z,8.90
2018-09-05T07:48:45.449Z,8.80
2018-09-05T07:51:13.823Z,8.60
2018-09-05T07:53:42.050Z,8.70
2018-09-05T07:56:10.322Z,11.30
2018-09-05T07:58:38.521Z,11.70
2018-09-05T08:01:06.826Z,10.60
2018-09-05T08:03:35.106Z,9.10
2018-09-05T08:06:03.356Z,11.90
2018-09-05T08:08:31.962Z,11.10
2018-09-05T08:11:00.174Z,13.00
2018-09-05T08:13:28.462Z,12.50
2018-09-05T08:15:56.765Z,12.03
2018-09-05T08:18:25.013Z,12.97
2018-09-05T08:20:53.249Z,13.43
2018-09-05T08:23:21.573Z,14.27
2018-09-05T08:25:49.875Z,15.40
2018-09-05T08:28:18.202Z,14.90
2018-09-05T08:30:46.461Z,16.10
2018-09-05T08:33:14.733Z,18.10
2018-09-05T08:35:43.279Z,18.77
2018-09-05T08:38:11.313Z,20.17
2018-09-05T08:40:39.587Z,19.50
2018-09-05T08:43:07.750Z,19.83
2018-09-05T08:45:36.129Z,18.23
2018-09-05T08:48:04.231Z,17.87
2018-09-05T08:50:32.473Z,20.27
2018-09-05T08:53:00.718Z,22.30
2018-09-05T08:55:29.154Z,23.13
2018-09-05T08:57:57.397Z,22.60
2018-09-05T09:00:25.717Z,21.40
2018-09-05T09:02:54.080Z,22.50
2018-09-05T09:05:22.258Z,22.70
2018-09-05T09:07:50.589Z,22.17
2018-09-05T09:10:18.876Z,24.03
2018-09-05T09:12:47.085Z,24.03
2018-09-05T09:15:15.391Z,21.63
2018-09-05T09:17:43.657Z,23.07
2018-09-05T09:20:11.889Z,24.50
2018-09-05T09:22:40.122Z,26.23
2018-09-05T09:25:08.442Z,25.90
2018-09-05T09:27:36.734Z,25.73
2018-09-05T09:30:04.928Z,27.63
2018-09-05T09:32:33.145Z,27.50
2018-09-05T09:35:01.385Z,28.00
2018-09-05T09:37:29.618Z,30.07
2018-09-05T09:39:58.165Z,30.43
2018-09-05T09:42:26.374Z,32.10
2018-09-05T09:44:54.570Z,32.40
2018-09-05T09:47:22.779Z,33.97
2018-09-05T09:49:50.994Z,32.60
2018-09-05T09:52:19.493Z,33.23
2018-09-05T09:54:48.470Z,32.73
2018-09-05T09:57:17.861Z,32.47
2018-09-05T09:59:46.155Z,29.80
2018-09-05T10:02:19.865Z,29.60
2018-09-05T10:04:53.683Z,26.83
2018-09-05T10:07:27.378Z,30.27
2018-09-05T10:09:59.943Z,29.03
2018-09-05T10:12:33.509Z,29.30
2018-09-05T10:15:02.822Z,30.40
2018-09-05T10:17:32.456Z,31.70
2018-09-05T10:20:01.385Z,32.80
2018-09-05T10:22:30.333Z,33.87
2018-09-05T10:24:58.530Z,34.10
2018-09-05T10:27:27.718Z,35.67
2018-09-05T10:29:56.452Z,33.80
2018-09-05T10:32:25.242Z,35.87
2018-09-05T10:34:54.159Z,32.63
2018-09-05T10:37:22.440Z,30.03
2018-09-05T10:39:50.877Z,29.00
2018-09-05T10:42:19.239Z,28.23
2018-09-05T10:44:47.493Z,27.10
2018-09-05T10:47:15.747Z,28.03
2018-09-05T10:49:43.994Z,29.90
2018-09-05T10:52:12.293Z,32.17
2018-09-05T10:54:40.557Z,30.87
2018-09-05T10:57:08.801Z,30.00
2018-09-05T10:59:37.021Z,29.60
2018-09-05T11:02:05.248Z,30.17
2018-09-05T11:04:33.506Z,29.67
2018-09-05T11:07:01.716Z,24.13
2018-09-05T11:09:29.946Z,25.47
2018-09-05T11:11:58.297Z,25.00
2018-09-05T11:14:26.557Z,27.50
2018-09-05T11:16:55.389Z,26.60
2018-09-05T11:19:23.630Z,27.53
2018-09-05T11:21:51.863Z,25.27
2018-09-05T11:24:20.065Z,23.90
2018-09-05T11:26:48.323Z,21.70
2018-09-05T11:29:16.573Z,22.63
2018-09-05T11:31:44.933Z,22.00
2018-09-05T11:34:13.169Z,20.27
2018-09-05T11:36:41.487Z,22.20
2018-09-05T11:39:11.646Z,20.87
2018-09-05T11:41:39.936Z,19.07
2018-09-05T11:44:08.191Z,18.47
2018-09-05T11:46:37.246Z,19.67
2018-09-05T11:49:05.554Z,17.97
2018-09-05T11:51:33.810Z,17.70
2018-09-05T11:54:02.066Z,19.60
2018-09-05T11:56:30.309Z,16.33
2018-09-05T11:58:58.541Z,15.10
2018-09-05T12:01:26.905Z,14.90
2018-09-05T12:03:55.129Z,13.40
2018-09-05T12:06:23.849Z,12.57
2018-09-05T12:08:52.126Z,12.17
2018-09-05T12:11:20.456Z,12.50
2018-09-05T12:13:48.666Z,14.97
2018-09-05T12:16:16.922Z,14.23
2018-09-05T12:18:45.254Z,12.40
2018-09-05T12:21:13.461Z,13.13
2018-09-05T12:23:41.730Z,12.20
2018-09-05T12:26:09.953Z,11.10
2018-09-05T12:28:38.456Z,11.20
2018-09-05T12:31:06.813Z,10.80
2018-09-05T12:33:35.118Z,11.40
2018-09-05T12:36:03.313Z,11.03
2018-09-05T12:38:31.531Z,10.80
2018-09-05T12:40:59.758Z,10.70
2018-09-05T12:43:28.023Z,11.63
2018-09-05T12:45:56.286Z,12.20
2018-09-05T12:48:24.865Z,11.50
2018-09-05T12:50:53.109Z,11.93
2018-09-05T12:53:21.373Z,11.23
2018-09-05T12:55:49.606Z,11.80
2018-09-05T12:58:17.888Z,12.00
2018-09-05T13:00:46.150Z,10.83
2018-09-05T13:03:14.381Z,10.83
2018-09-05T13:05:42.601Z,10.73
2018-09-05T13:08:10.859Z,10.47
2018-09-05T13:10:39.126Z,11.23
2018-09-05T13:13:07.454Z,10.20
2018-09-05T13:15:35.669Z,10.17
2018-09-05T13:18:03.887Z,11.50
2018-09-05T13:20:32.090Z,11.17
2018-09-05T13:23:00.317Z,11.60
2018-09-05T13:25:28.521Z,11.20
2018-09-05T13:27:56.745Z,11.10
2018-09-05T13:30:25.055Z,11.77
2018-09-05T13:32:53.278Z,11.73
2018-09-05T13:35:21.569Z,10.93
2018-09-05T13:37:49.774Z,11.50
2018-09-05T13:40:18.021Z,11.63
2018-09-05T13:42:46.229Z,10.63
2018-09-05T13:45:14.585Z,10.57
2018-09-05T13:47:42.746Z,11.00
2018-09-05T13:50:11.017Z,12.13
2018-09-05T13:52:39.353Z,11.00
2018-09-05T13:55:07.730Z,10.80
2018-09-05T13:57:36.002Z,10.27
2018-09-05T14:00:04.373Z,11.13
2018-09-05T14:02:32.713Z,11.07
2018-09-05T14:05:00.962Z,11.20
2018-09-05T14:07:29.251Z,10.57
2018-09-05T14:09:57.528Z,10.47
2018-09-05T14:12:25.717Z,10.60
2018-09-05T14:14:54.029Z,11.60
2018-09-05T14:17:22.297Z,11.33
2018-09-05T14:19:50.613Z,10.97
2018-09-05T14:22:18.829Z,11.10
2018-09-05T14:24:47.148Z,11.33
2018-09-05T14:27:15.410Z,10.77
2018-09-05T14:29:43.696Z,11.93
2018-09-05T14:32:12.055Z,12.90
2018-09-05T14:34:40.269Z,13.93
2018-09-05T14:37:08.578Z,15.20
2018-09-05T14:39:36.797Z,16.10
2018-09-05T14:42:05.345Z,13.87
2018-09-05T14:44:33.595Z,14.60
2018-09-05T14:47:01.874Z,14.20
2018-09-05T14:49:30.149Z,13.93
2018-09-05T14:51:58.455Z,14.00
2018-09-05T14:54:26.773Z,15.00
2018-09-05T14:56:55.054Z,14.97
2018-09-05T14:59:23.645Z,14.13
2018-09-05T15:01:51.952Z,13.60
2018-09-05T15:04:20.198Z,14.83
2018-09-05T15:06:48.537Z,15.33
2018-09-05T15:09:16.853Z,14.80
2018-09-05T15:11:45.062Z,15.67
2018-09-05T15:14:13.333Z,15.90
2018-09-05T15:16:41.579Z,16.00
2018-09-05T15:19:09.823Z,16.53
2018-09-05T15:21:38.078Z,17.00
2018-09-05T15:24:06.288Z,18.43
2018-09-05T15:26:34.574Z,18.30
2018-09-05T15:29:02.945Z,19.73
2018-09-05T15:31:31.190Z,20.03
2018-09-05T15:33:59.461Z,19.93
2018-09-05T15:36:27.786Z,21.70
2018-09-05T15:38:56.098Z,22.00
2018-09-05T15:41:24.375Z,22.30
2018-09-05T15:43:52.597Z,22.23
2018-09-05T15:46:20.985Z,23.37
2018-09-05T15:48:49.206Z,23.70
2018-09-05T15:51:17.586Z,22.63
2018-09-05T15:53:46.014Z,22.20
2018-09-05T15:56:14.206Z,21.40
2018-09-05T15:58:42.530Z,21.97
2018-09-05T16:01:10.797Z,19.77
2018-09-05T16:03:39.107Z,18.80
2018-09-05T16:06:07.262Z,18.70
2018-09-05T16:08:35.696Z,18.20
2018-09-05T16:11:03.922Z,17.03
2018-09-05T16:13:32.148Z,17.43
2018-09-05T16:16:00.409Z,19.20
2018-09-05T16:18:29.241Z,17.40
2018-09-05T16:20:57.517Z,17.50
2018-09-05T16:23:25.806Z,16.53
2018-09-05T16:25:54.089Z,16.10
2018-09-05T16:28:22.441Z,16.73
2018-09-05T16:30:50.773Z,16.57
2018-09-05T16:33:19.013Z,16.83
2018-09-05T16:35:47.336Z,15.07
2018-09-05T16:38:15.535Z,15.77
2018-09-05T16:40:43.802Z,15.53
2018-09-05T16:43:12.073Z,15.77
2018-09-05T16:45:40.331Z,16.90
2018-09-05T16:48:08.702Z,17.93
2018-09-05T16:50:36.936Z,17.07
2018-09-05T16:53:05.217Z,17.70
2018-09-05T16:55:33.485Z,16.27
2018-09-05T16:58:01.751Z,16.03
2018-09-05T17:00:30.093Z,14.77
2018-09-05T17:02:58.360Z,16.37
2018-09-05T17:05:26.719Z,15.40
2018-09-05T17:07:54.946Z,15.27
2018-09-05T17:10:23.171Z,14.83
2018-09-05T17:12:51.397Z,15.17
2018-09-05T17:15:19.751Z,15.50
2018-09-05T17:17:48.025Z,14.90
2018-09-05T17:20:19.268Z,16.80
2018-09-05T17:22:47.523Z,15.83
2018-09-05T17:25:15.746Z,16.90
2018-09-05T17:27:44.053Z,17.10
2018-09-05T17:30:12.367Z,15.70
2018-09-05T17:32:40.671Z,15.93
2018-09-05T17:35:08.941Z,17.67
2018-09-05T17:37:37.163Z,15.80
2018-09-05T17:40:05.553Z,16.40
2018-09-05T17:42:33.837Z,16.23
2018-09-05T17:45:02.128Z,15.60
2018-09-05T17:47:30.410Z,14.80
2018-09-05T17:49:58.673Z,17.00
2018-09-05T17:52:27.011Z,15.87
2018-09-05T17:54:55.226Z,17.33
2018-09-05T17:57:23.489Z,18.80
2018-09-05T17:59:51.795Z,17.80
2018-09-05T18:02:20.027Z,17.60
2018-09-05T18:04:48.326Z,18.57
2018-09-05T18:07:16.640Z,18.57
2018-09-05T18:09:45.029Z,18.97
2018-09-05T18:12:13.229Z,18.93
2018-09-05T18:14:41.590Z,19.37
2018-09-05T18:17:09.697Z,18.90
2018-09-05T18:19:38.021Z,19.60
2018-09-05T18:22:06.318Z,18.70
2018-09-05T18:24:34.560Z,20.50
2018-09-05T18:27:03.818Z,20.30
2018-09-05T18:29:32.065Z,19.80
2018-09-05T18:32:00.281Z,21.00
2018-09-05T18:34:28.566Z,20.63
2018-09-05T18:36:56.807Z,22.40
2018-09-05T18:39:25.054Z,21.77
2018-09-05T18:41:53.290Z,23.90
2018-09-05T18:44:21.686Z,22.13
2018-09-05T18:46:50.086Z,24.00
2018-09-05T18:49:18.449Z,23.97
2018-09-05T18:51:46.582Z,23.67
2018-09-05T18:54:14.909Z,23.50
2018-09-05T18:56:43.138Z,23.93
2018-09-05T18:59:11.389Z,25.43
2018-09-05T19:01:39.614Z,25.97
2018-09-05T19:04:07.890Z,25.33
2018-09-05T19:06:36.294Z,26.10
2018-09-05T19:09:07.640Z,26.87
2018-09-05T19:11:35.868Z,26.23
2018-09-05T19:14:04.131Z,27.47
2018-09-05T19:16:32.414Z,28.83
2018-09-05T19:19:00.679Z,28.47
2018-09-05T19:21:28.937Z,27.57
2018-09-05T19:23:57.224Z,30.50
2018-09-05T19:26:25.487Z,30.10
2018-09-05T19:28:53.779Z,30.03
2018-09-05T19:31:22.557Z,33.47
2018-09-05T19:33:50.765Z,31.67
2018-09-05T19:36:19.046Z,29.93
2018-09-05T19:38:47.364Z,31.30
2018-09-05T19:41:15.633Z,34.83
2018-09-05T19:43:43.841Z,34.53
2018-09-05T19:46:12.165Z,32.53
2018-09-05T19:48:40.417Z,34.93
2018-09-05T19:51:08.645Z,36.53
2018-09-05T19:53:37.146Z,35.03
2018-09-05T19:56:05.403Z,34.97
2018-09-05T19:58:33.643Z,35.27
2018-09-05T20:01:01.866Z,33.60
2018-09-05T20:03:30.144Z,34.87
2018-09-05T20:05:58.404Z,35.53
2018-09-05T20:08:26.669Z,34.73
2018-09-05T20:10:54.961Z,34.37
2018-09-05T20:13:23.213Z,34.30
2018-09-05T20:15:51.421Z,34.53
2018-09-05T20:18:19.638Z,34.53
2018-09-05T20:20:47.889Z,32.50
2018-09-05T20:23:16.156Z,33.43
2018-09-05T20:25:44.490Z,33.83
2018-09-05T20:28:12.746Z,35.93
2018-09-05T20:30:40.965Z,32.77
2018-09-05T20:33:09.291Z,33.37
2018-09-05T20:35:37.498Z,34.00
2018-09-05T20:38:05.818Z,32.47
2018-09-05T20:40:34.192Z,31.30
2018-09-05T20:43:02.416Z,32.07
2018-09-05T20:45:30.655Z,31.17
2018-09-05T20:47:58.958Z,33.30
2018-09-05T20:50:27.223Z,32.10
2018-09-05T20:52:55.479Z,32.50
2018-09-05T20:55:23.689Z,31.07
2018-09-05T20:57:51.941Z,32.97
2018-09-05T21:00:20.161Z,32.03
2018-09-05T21:02:48.409Z,32.63
2018-09-05T21:05:16.706Z,31.80
2018-09-05T21:07:44.914Z,31.60
2018-09-05T21:10:13.343Z,31.00
2018-09-05T21:12:41.590Z,31.17
2018-09-05T21:15:09.798Z,30.50
2018-09-05T21:17:38.026Z,28.70
2018-09-05T21:20:06.305Z,30.63
2018-09-05T21:22:34.594Z,30.23
2018-09-05T21:25:02.925Z,31.10
2018-09-05T21:27:31.187Z,32.17
2018-09-05T21:29:59.498Z,32.27
2018-09-05T21:32:27.722Z,31.60
2018-09-05T21:34:55.947Z,32.60
2018-09-05T21:37:24.213Z,33.10
2018-09-05T21:39:52.414Z,32.77
2018-09-05T21:42:20.687Z,33.43
2018-09-05T21:44:48.933Z,32.67
2018-09-05T21:47:17.153Z,33.27
2018-09-05T21:49:45.410Z,33.27
2018-09-05T21:52:13.657Z,34.80
2018-09-05T21:54:41.877Z,32.97
2018-09-05T21:57:10.813Z,35.07
2018-09-05T21:59:39.032Z,34.27
2018-09-05T22:02:07.277Z,33.80
2018-09-05T22:04:35.583Z,34.77
2018-09-05T22:07:03.805Z,34.70
2018-09-05T22:09:32.041Z,36.40
2018-09-05T22:12:00.334Z,36.53
2018-09-05T22:14:28.589Z,36.90
2018-09-05T22:16:56.891Z,37.40
2018-09-05T22:19:25.116Z,39.77
2018-09-05T22:21:53.429Z,40.30
2018-09-05T22:24:21.624Z,39.80
2018-09-05T22:26:49.833Z,40.03
2018-09-05T22:29:18.086Z,39.67
2018-09-05T22:31:46.347Z,39.80
2018-09-05T22:34:14.605Z,40.10
2018-09-05T22:36:42.854Z,40.67
2018-09-05T22:39:11.218Z,41.27
2018-09-05T22:41:39.445Z,39.77
2018-09-05T22:44:19.201Z,43.93
2018-09-05T22:46:58.829Z,42.80
2018-09-05T22:52:13.745Z,42.33
2018-09-05T22:57:14.637Z,41.27
2018-09-05T22:59:59.016Z,43.13
2018-09-05T23:02:41.860Z,46.17
2018-09-05T23:07:26.107Z,45.93
2018-09-05T23:10:05.762Z,43.43
2018-09-05T23:12:45.475Z,45.87
2018-09-05T23:15:25.132Z,47.50
2018-09-05T23:20:08.437Z,47.23
2018-09-05T23:23:52.133Z,48.93
2018-09-05T23:26:20.361Z,47.50
2018-09-05T23:28:48.605Z,47.50
2018-09-05T23:31:16.905Z,48.37
2018-09-05T23:33:51.762Z,48.83
2018-09-05T23:36:20.382Z,50.33
2018-09-05T23:38:48.746Z,48.83
2018-09-05T23:41:16.981Z,47.37
2018-09-05T23:43:45.249Z,48.30
2018-09-05T23:46:13.736Z,49.40
2018-09-05T23:48:41.992Z,47.27
2018-09-05T23:51:10.234Z,50.37
2018-09-05T23:53:38.537Z,50.77
2018-09-05T23:56:06.808Z,48.57
2018-09-05T23:58:35.033Z,52.10
